Time;durP1;ratioP1;P1;durP2;ratioP2;P2;SDS_P1;SDS_P2;PMS_P1;PMS_P2;Temp;Humidity;BMP_temperature;BMP_pressure;BME280_temperature;BME280_humidity;BME280_pressure;Samples;Min_cycle;Max_cycle;Signal;HPM_P1;HPM_P2
2024/05/07 00:00:04;;;;;;;25.33;23.23;;;;;;;15.44;100.00;100058.50;5432156;26;20347;-77
2024/05/07 00:02:30;;;;;;;25.93;23.23;;;;;;;15.49;100.00;100058.59;5453378;26;20234;-77
2024/05/07 00:04:55;;;;;;;25.43;23.20;;;;;;;15.67;100.00;100065.97;5453190;26;20226;-76
2024/05/07 00:07:20;;;;;;;23.83;21.73;;;;;;;15.24;100.00;100061.72;5452804;26;20714;-76
2024/05/07 00:09:45;;;;;;;22.70;20.90;;;;;;;15.42;100.00;100069.91;5452973;26;20579;-77
2024/05/07 00:12:11;;;;;;;23.57;21.53;;;;;;;15.53;100.00;100072.88;5442506;26;20229;-77
2024/05/07 00:14:38;;;;;;;24.67;22.47;;;;;;;15.71;100.00;100083.88;5453172;26;20245;-78
2024/05/07 00:17:03;;;;;;;25.87;23.57;;;;;;;15.63;100.00;100081.47;5421239;26;20302;-77
2024/05/07 00:19:29;;;;;;;26.00;23.30;;;;;;;15.91;100.00;100091.78;5453170;26;20455;-77
2024/05/07 00:21:54;;;;;;;25.77;23.43;;;;;;;15.95;100.00;100087.41;5453072;26;20230;-77
2024/05/07 00:24:19;;;;;;;28.60;26.00;;;;;;;15.78;100.00;100087.34;5453167;26;20230;-77
2024/05/07 00:26:45;;;;;;;27.00;24.47;;;;;;;15.95;100.00;100091.03;5453086;26;20229;-77
2024/05/07 00:29:10;;;;;;;29.07;26.50;;;;;;;15.93;100.00;100084.03;5440997;26;20334;-77
2024/05/07 00:31:35;;;;;;;31.70;28.80;;;;;;;15.88;100.00;100084.78;5452802;26;20233;-77
2024/05/07 00:34:01;;;;;;;35.87;32.67;;;;;;;15.78;100.00;100087.34;5452820;26;20346;-77
2024/05/07 00:36:26;;;;;;;33.47;30.67;;;;;;;15.70;100.00;100085.81;5452825;26;20226;-77
2024/05/07 00:38:51;;;;;;;36.13;33.00;;;;;;;15.84;100.00;100086.38;5452814;26;20277;-77
2024/05/07 00:41:17;;;;;;;36.60;33.40;;;;;;;15.91;100.00;100105.72;5452713;26;20330;-77
2024/05/07 00:43:42;;;;;;;36.60;33.00;;;;;;;15.83;100.00;100095.81;5452800;26;20567;-77
2024/05/07 00:46:07;;;;;;;32.70;29.80;;;;;;;15.82;100.00;100078.25;5439652;26;20340;-77
2024/05/07 00:48:33;;;;;;;34.37;31.47;;;;;;;15.82;100.00;100091.34;5452695;26;20284;-77
2024/05/07 00:50:58;;;;;;;34.73;31.70;;;;;;;15.83;100.00;100091.09;5452656;26;20644;-77
2024/05/07 00:53:24;;;;;;;35.13;32.13;;;;;;;15.73;100.00;100110.41;5452802;26;20226;-77
2024/05/07 00:55:49;;;;;;;35.40;32.20;;;;;;;15.56;100.00;100109.47;5452101;26;20711;-77
2024/05/07 00:58:19;;;;;;;35.67;32.00;;;;;;;15.50;100.00;100107.63;5452517;26;20276;-77
2024/05/07 01:00:44;;;;;;;34.63;31.73;;;;;;;15.62;100.00;100104.84;5452248;26;20242;-77
2024/05/07 01:03:15;;;;;;;36.83;33.67;;;;;;;15.50;100.00;100113.19;5437348;26;20511;-77
2024/05/07 01:05:41;;;;;;;38.63;35.00;;;;;;;15.39;100.00;100098.22;5452404;26;20230;-77
2024/05/07 01:08:06;;;;;;;35.70;32.60;;;;;;;15.54;100.00;100105.22;5452630;26;20448;-77
2024/05/07 01:10:32;;;;;;;34.43;31.63;;;;;;;15.54;100.00;100108.84;5452053;26;20471;-77
2024/05/07 01:12:57;;;;;;;33.97;30.90;;;;;;;15.58;100.00;100117.59;5452062;26;20277;-77
2024/05/07 01:15:22;;;;;;;34.70;31.60;;;;;;;15.75;100.00;100110.97;5452168;26;20330;-78
2024/05/07 01:17:47;;;;;;;34.30;31.20;;;;;;;15.47;100.00;100108.97;5452870;26;20334;-77
2024/05/07 01:20:14;;;;;;;35.47;32.47;;;;;;;15.47;100.00;100120.09;5438993;26;20276;-77
2024/05/07 01:22:39;;;;;;;34.50;31.10;;;;;;;15.67;100.00;100122.53;5455596;26;20275;-78
2024/05/07 01:25:05;;;;;;;33.00;30.17;;;;;;;15.88;100.00;100117.38;5424025;26;20471;-77
2024/05/07 01:27:30;;;;;;;34.80;31.80;;;;;;;15.91;100.00;100119.63;5455467;26;20276;-77
2024/05/07 01:29:55;;;;;;;33.87;30.97;;;;;;;15.88;100.00;100106.22;5455479;26;20263;-78
2024/05/07 01:32:21;;;;;;;34.33;31.33;;;;;;;15.97;100.00;100127.03;5423726;26;20687;-76
2024/05/07 01:34:46;;;;;;;34.30;31.40;;;;;;;15.94;100.00;100124.72;5455456;26;20230;-77
2024/05/07 01:37:12;;;;;;;37.43;34.37;;;;;;;15.55;100.00;100130.06;5437644;26;20226;-78
2024/05/07 01:39:37;;;;;;;36.53;33.20;;;;;;;15.47;100.00;100127.59;5455248;26;20230;-77
2024/05/07 01:42:03;;;;;;;35.27;32.17;;;;;;;15.66;100.00;100111.63;5455281;26;20655;-77
2024/05/07 01:44:28;;;;;;;35.70;32.60;;;;;;;15.58;100.00;100137.94;5455276;26;20557;-77
2024/05/07 01:46:53;;;;;;;35.90;32.80;;;;;;;15.97;100.00;100129.81;5455463;26;20229;-77
2024/05/07 01:49:18;;;;;;;36.73;33.63;;;;;;;15.88;100.00;100131.31;5455193;26;20234;-77
2024/05/07 01:51:44;;;;;;;35.90;32.90;;;;;;;16.05;100.00;100134.97;5445922;26;20235;-77
2024/05/07 01:54:09;;;;;;;35.27;32.23;;;;;;;16.03;100.00;100131.59;5435439;26;20237;-77
2024/05/07 01:56:35;;;;;;;33.47;30.57;;;;;;;15.90;100.00;100138.28;5454814;26;20272;-77
2024/05/07 01:59:01;;;;;;;35.87;32.77;;;;;;;16.04;100.00;100128.53;5464645;26;20238;-77
2024/05/07 02:01:26;;;;;;;35.00;32.10;;;;;;;15.93;100.00;100135.03;5455050;26;20507;-77
2024/05/07 02:03:51;;;;;;;37.80;34.50;;;;;;;15.81;100.00;100134.22;5455132;26;20706;-77
2024/05/07 02:06:17;;;;;;;35.57;32.53;;;;;;;15.59;100.00;100144.31;5455058;26;20230;-77
2024/05/07 02:08:48;;;;;;;37.30;34.10;;;;;;;15.38;100.00;100140.22;5455075;26;20230;-77
2024/05/07 02:11:14;;;;;;;38.27;34.83;;;;;;;15.40;100.00;100135.25;5432479;26;20230;-77
2024/05/07 02:13:40;;;;;;;37.40;34.30;;;;;;;15.58;100.00;100137.94;5454740;26;20799;-77
2024/05/07 02:16:06;;;;;;;38.00;34.60;;;;;;;15.46;100.00;100142.63;5454865;26;20510;-77
2024/05/07 02:18:31;;;;;;;38.67;35.30;;;;;;;15.31;100.00;100136.72;5454760;26;20366;-77
2024/05/07 02:20:59;;;;;;;38.70;35.50;;;;;;;15.49;100.00;100133.78;5454903;26;21002;-77
2024/05/07 02:23:24;;;;;;;37.70;34.40;;;;;;;15.34;100.00;100123.16;5454768;26;20277;-77
2024/05/07 02:25:49;;;;;;;34.83;31.93;;;;;;;15.51;100.00;100137.16;5454835;26;20693;-73
2024/05/07 02:28:14;;;;;;;37.30;34.20;;;;;;;15.24;100.00;100141.56;5452850;26;20234;-77
2024/05/07 02:30:40;;;;;;;36.03;33.00;;;;;;;15.24;100.00;100144.34;5454595;26;20264;-77
2024/05/07 02:33:05;;;;;;;37.30;34.00;;;;;;;15.36;100.00;100136.84;5431548;26;20756;-77
2024/05/07 02:35:30;;;;;;;37.03;33.67;;;;;;;15.23;100.00;100142.66;5454478;26;20233;-75
2024/05/07 02:37:56;;;;;;;35.37;32.20;;;;;;;15.69;100.00;100147.34;5454663;26;20226;-77
2024/05/07 02:40:21;;;;;;;33.00;30.30;;;;;;;15.59;100.00;100141.53;5454650;26;20226;-75
2024/05/07 02:42:46;;;;;;;33.77;30.87;;;;;;;15.87;99.60;100138.81;5454381;26;20264;-77
2024/05/07 02:45:12;;;;;;;33.80;31.00;;;;;;;15.93;99.36;100143.38;5453139;26;20225;-77
2024/05/07 02:47:37;;;;;;;35.00;32.03;;;;;;;15.46;100.00;100134.25;5454313;26;20641;-77
2024/05/07 02:50:03;;;;;;;34.70;31.80;;;;;;;15.48;100.00;100149.63;5454195;26;20311;-76
2024/05/07 02:52:28;;;;;;;31.77;29.20;;;;;;;15.74;100.00;100147.44;5454055;26;20570;-76
2024/05/07 02:54:53;;;;;;;33.67;30.67;;;;;;;15.58;100.00;100146.28;5454404;26;20339;-76
2024/05/07 02:57:19;;;;;;;33.60;30.70;;;;;;;15.35;100.00;100146.28;5454172;26;20238;-76
2024/05/07 02:59:44;;;;;;;36.30;33.30;;;;;;;15.02;100.00;100156.06;5422513;26;20264;-77
2024/05/07 03:02:09;;;;;;;35.07;32.07;;;;;;;15.01;100.00;100145.19;5450293;26;20272;-76
2024/05/07 03:04:46;;;;;;;35.07;31.97;;;;;;;15.14;100.00;100162.47;5454167;26;20310;-77
2024/05/07 03:10:46;;;;;;;35.33;32.33;;;;;;;15.01;100.00;100168.28;5437406;26;20555;-77
2024/05/07 03:13:11;;;;;;;32.67;30.07;;;;;;;15.07;100.00;100175.69;5453841;26;20467;-76
2024/05/07 03:15:36;;;;;;;33.47;30.57;;;;;;;15.22;100.00;100169.63;5422170;26;20334;-76
2024/05/07 03:18:03;;;;;;;32.47;29.73;;;;;;;15.27;100.00;100157.78;5448305;26;20333;-76
2024/05/07 03:20:28;;;;;;;32.60;29.90;;;;;;;15.43;100.00;100163.44;5453972;26;20233;-76
2024/05/07 03:22:53;;;;;;;30.90;28.40;;;;;;;15.54;100.00;100167.31;5454078;26;20787;-75
2024/05/07 03:25:20;;;;;;;30.17;27.67;;;;;;;15.67;100.00;100174.59;5453994;26;20269;-77
2024/05/07 03:27:45;;;;;;;30.40;27.90;;;;;;;15.74;100.00;100170.56;5454160;26;20230;-77
2024/05/07 03:30:11;;;;;;;29.23;26.77;;;;;;;15.72;99.89;100175.56;5453806;26;20463;-76
2024/05/07 03:32:36;;;;;;;29.17;26.73;;;;;;;15.51;100.00;100169.72;5453917;26;20230;-77
2024/05/07 03:35:01;;;;;;;30.90;28.20;;;;;;;15.61;99.77;100176.41;5445954;26;20267;-77
2024/05/07 03:37:27;;;;;;;27.30;25.00;;;;;;;15.38;100.00;100177.25;5421696;26;20238;-76
2024/05/07 03:39:52;;;;;;;29.00;26.40;;;;;;;15.68;100.00;100179.91;5453043;26;20241;-76
2024/05/07 03:42:17;;;;;;;29.23;26.73;;;;;;;15.45;100.00;100179.91;5466651;26;20229;-77
2024/05/07 03:44:42;;;;;;;29.77;27.33;;;;;;;15.23;100.00;100188.03;5453387;26;20230;-76
2024/05/07 03:47:08;;;;;;;30.63;27.87;;;;;;;15.09;100.00;100187.44;5453742;26;20691;-76
2024/05/07 03:49:37;;;;;;;31.17;28.47;;;;;;;15.19;100.00;100194.31;5453648;26;20230;-76
2024/05/07 03:52:02;;;;;;;27.03;24.80;;;;;;;15.53;100.00;100193.47;5451951;26;20225;-76
2024/05/07 03:54:29;;;;;;;29.63;27.23;;;;;;;15.13;100.00;100196.13;5453566;26;20569;-76
2024/05/07 03:56:54;;;;;;;28.73;26.43;;;;;;;15.28;100.00;100198.41;5421647;26;20603;-76
2024/05/07 03:59:19;;;;;;;28.30;26.10;;;;;;;14.97;100.00;100185.72;5453733;26;20455;-76
2024/05/07 04:01:44;;;;;;;29.30;26.57;;;;;;;14.70;100.00;100160.28;5422103;26;20238;-73
2024/05/07 04:04:10;;;;;;;27.70;25.40;;;;;;;15.36;100.00;100206.41;5421710;26;20238;-74
2024/05/07 04:06:39;;;;;;;23.97;22.17;;;;;;;15.57;100.00;100203.06;5453487;26;20230;-77
2024/05/07 04:09:05;;;;;;;25.70;23.70;;;;;;;15.58;99.43;100203.91;5443656;26;20366;-76
2024/05/07 04:11:30;;;;;;;24.77;22.77;;;;;;;15.68;97.89;100201.34;5453266;26;20823;-77
2024/05/07 04:13:55;;;;;;;23.47;21.47;;;;;;;15.49;99.92;100215.38;5453062;26;20229;-76
2024/05/07 04:16:20;;;;;;;23.60;21.70;;;;;;;15.35;100.00;100211.13;5453164;26;20245;-77
2024/05/07 04:18:46;;;;;;;23.00;21.20;;;;;;;15.55;98.79;100221.94;5453357;26;20246;-76
2024/05/07 04:21:11;;;;;;;23.03;21.00;;;;;;;15.51;99.54;100223.47;5453085;26;20230;-75
2024/05/07 04:23:37;;;;;;;22.70;21.00;;;;;;;15.62;99.36;100224.59;5453188;26;20226;-76
2024/05/07 04:26:02;;;;;;;21.27;19.57;;;;;;;15.33;99.67;100221.66;5441650;26;20226;-77
2024/05/07 04:28:27;;;;;;;23.37;21.47;;;;;;;15.75;97.08;100236.31;5452921;26;20273;-76
2024/05/07 04:30:53;;;;;;;20.93;19.23;;;;;;;15.69;96.45;100236.47;5453107;26;20714;-76
2024/05/07 04:33:18;;;;;;;20.80;19.20;;;;;;;15.50;97.98;100232.91;5453007;26;20225;-77
2024/05/07 04:35:43;;;;;;;22.50;20.70;;;;;;;15.48;97.51;100235.94;5452798;26;20284;-76
2024/05/07 04:38:09;;;;;;;22.40;20.70;;;;;;;15.08;100.00;100235.81;5442008;26;20280;-77
2024/05/07 04:40:34;;;;;;;21.20;19.70;;;;;;;15.28;99.86;100238.22;5421242;26;20557;-76
2024/05/07 04:43:00;;;;;;;21.53;19.73;;;;;;;15.54;98.21;100244.44;5440193;26;20707;-77
2024/05/07 04:45:26;;;;;;;20.87;19.10;;;;;;;15.64;96.63;100239.97;5452815;26;20334;-77
2024/05/07 04:47:51;;;;;;;20.23;18.73;;;;;;;15.47;96.42;100231.47;5452687;26;20226;-77
2024/05/07 04:50:16;;;;;;;19.80;18.20;;;;;;;15.20;98.03;100248.88;5452651;26;20511;-77
2024/05/07 04:52:42;;;;;;;19.70;18.30;;;;;;;15.21;97.51;100256.16;5452319;26;20230;-76
2024/05/07 04:55:07;;;;;;;20.30;18.47;;;;;;;15.12;99.03;100250.09;5452642;26;20707;-77
2024/05/07 04:57:32;;;;;;;19.33;17.83;;;;;;;15.01;100.00;100256.47;5455325;26;20249;-77
2024/05/07 04:59:57;;;;;;;20.33;18.87;;;;;;;14.72;100.00;100258.22;5426727;26;20678;-77
2024/05/07 05:02:23;;;;;;;19.10;17.70;;;;;;;15.10;99.33;100264.25;5452724;26;20280;-77
2024/05/07 05:04:48;;;;;;;18.37;17.17;;;;;;;15.16;99.29;100265.22;5452287;26;20694;-77
2024/05/07 05:07:13;;;;;;;18.30;16.90;;;;;;;15.31;97.21;100271.16;5452303;26;20237;-77
2024/05/07 05:09:38;;;;;;;18.00;16.70;;;;;;;15.04;98.65;100278.25;5452409;26;20272;-77
2024/05/07 05:12:04;;;;;;;17.10;15.80;;;;;;;15.25;98.48;100277.69;5452360;26;20261;-76
2024/05/07 05:14:29;;;;;;;19.47;17.87;;;;;;;15.12;98.62;100264.00;5452269;26;20229;-77
2024/05/07 05:16:55;;;;;;;16.23;15.13;;;;;;;15.27;97.63;100285.81;5437097;26;20285;-77
2024/05/07 05:19:20;;;;;;;18.17;16.87;;;;;;;15.09;98.51;100289.53;5451092;26;20226;-77
2024/05/07 05:21:45;;;;;;;18.40;17.10;;;;;;;14.96;98.27;100278.63;5452094;26;20263;-77
2024/05/07 05:24:10;;;;;;;18.60;17.20;;;;;;;14.65;100.00;100275.00;5452287;26;20308;-77
2024/05/07 05:26:36;;;;;;;19.50;17.90;;;;;;;14.56;100.00;100275.56;5451931;26;20264;-77
2024/05/07 05:29:01;;;;;;;18.80;17.43;;;;;;;14.41;100.00;100287.09;5452156;26;20234;-77
2024/05/07 05:31:26;;;;;;;20.30;18.80;;;;;;;14.59;100.00;100289.00;5454746;26;20225;-77
2024/05/07 05:33:52;;;;;;;18.97;17.43;;;;;;;14.38;100.00;100296.72;5440452;26;20347;-77
2024/05/07 05:36:17;;;;;;;19.27;17.70;;;;;;;14.81;100.00;100283.78;5448385;26;20571;-76
2024/05/07 05:38:42;;;;;;;17.33;16.10;;;;;;;14.93;100.00;100293.84;5451978;26;20229;-77
2024/05/07 05:41:08;;;;;;;20.03;18.23;;;;;;;15.12;100.00;100309.34;5451916;26;20860;-77
2024/05/07 05:43:33;;;;;;;19.93;18.23;;;;;;;14.73;100.00;100294.13;5451556;26;20311;-77
2024/05/07 05:45:59;;;;;;;19.77;18.40;;;;;;;14.81;100.00;100312.44;5451615;26;20328;-76
2024/05/07 05:48:24;;;;;;;18.30;16.97;;;;;;;15.03;99.54;100315.50;5451568;26;20234;-75
2024/05/07 05:50:49;;;;;;;19.97;18.57;;;;;;;14.70;100.00;100308.50;5442470;26;20570;-77
2024/05/07 05:53:14;;;;;;;19.67;18.37;;;;;;;14.71;100.00;100301.84;5451488;26;20242;-76
2024/05/07 05:55:41;;;;;;;19.10;17.60;;;;;;;14.73;100.00;100312.75;5451510;26;20315;-77
2024/05/07 05:58:07;;;;;;;17.70;16.50;;;;;;;14.67;100.00;100320.09;5451630;26;20330;-77
2024/05/07 06:00:32;;;;;;;19.43;17.97;;;;;;;14.75;100.00;100313.34;5451007;26;20987;-77
2024/05/07 06:02:57;;;;;;;20.53;19.13;;;;;;;14.93;100.00;100327.22;5451350;26;20498;-76
2024/05/07 06:05:23;;;;;;;19.00;17.60;;;;;;;14.95;100.00;100319.50;5454428;26;20342;-77
2024/05/07 06:07:48;;;;;;;18.33;17.03;;;;;;;14.72;100.00;100323.03;5410128;26;20262;-77
2024/05/07 06:10:13;;;;;;;19.37;17.90;;;;;;;14.92;100.00;100311.63;5447113;26;20234;-73
2024/05/07 06:12:39;;;;;;;19.13;17.73;;;;;;;15.16;99.82;100334.78;5455225;26;20241;-76
2024/05/07 06:15:05;;;;;;;17.07;15.93;;;;;;;15.43;98.44;100344.38;5455041;26;20691;-76
2024/05/07 06:17:30;;;;;;;17.57;16.30;;;;;;;15.63;96.65;100334.91;5422695;26;20278;-76
2024/05/07 06:19:55;;;;;;;19.50;17.97;;;;;;;15.34;98.36;100328.28;5454814;26;20315;-76
2024/05/07 06:22:20;;;;;;;19.50;18.00;;;;;;;15.16;99.69;100350.63;5454807;26;20225;-76
2024/05/07 06:24:46;;;;;;;18.40;17.10;;;;;;;15.23;99.49;100345.81;5442143;26;20235;-76
2024/05/07 06:27:11;;;;;;;19.20;17.90;;;;;;;15.44;98.89;100334.94;5446027;26;20702;-77
2024/05/07 06:29:36;;;;;;;19.57;18.10;;;;;;;15.37;99.03;100350.94;5454694;26;20621;-76
2024/05/07 06:32:02;;;;;;;18.20;16.80;;;;;;;15.56;98.40;100362.88;5454668;26;20242;-77
2024/05/07 06:34:27;;;;;;;19.97;18.47;;;;;;;15.43;98.54;100360.25;5423144;26;20238;-76
2024/05/07 06:36:52;;;;;;;18.33;16.93;;;;;;;15.54;97.56;100365.00;5454502;26;20280;-76
2024/05/07 06:39:17;;;;;;;18.97;17.60;;;;;;;15.34;98.10;100375.59;5454534;26;20225;-75
2024/05/07 06:41:43;;;;;;;17.77;16.37;;;;;;;15.27;98.39;100372.09;5411030;26;20695;-77
2024/05/07 06:44:08;;;;;;;19.00;17.70;;;;;;;15.32;99.03;100375.84;5442443;26;20241;-76
2024/05/07 06:46:33;;;;;;;18.00;16.70;;;;;;;15.41;98.23;100390.28;5454317;26;20222;-76
2024/05/07 06:48:59;;;;;;;18.07;16.60;;;;;;;15.34;98.12;100383.97;5454604;26;20395;-77
2024/05/07 06:51:24;;;;;;;18.67;17.37;;;;;;;15.46;97.63;100390.41;5422705;26;20264;-77
2024/05/07 06:53:49;;;;;;;19.67;18.20;;;;;;;15.55;97.60;100390.91;5454406;26;20275;-76
2024/05/07 06:56:15;;;;;;;18.80;17.20;;;;;;;15.71;96.73;100393.91;5422624;26;20238;-73
2024/05/07 06:58:40;;;;;;;20.27;18.77;;;;;;;15.72;97.71;100391.97;5452862;26;20226;-76
2024/05/07 07:01:05;;;;;;;20.53;18.83;;;;;;;15.63;97.03;100397.00;5422653;26;20620;-77
2024/05/07 07:03:30;;;;;;;19.03;17.63;;;;;;;15.60;97.79;100397.47;5454125;26;20229;-76
2024/05/07 07:05:56;;;;;;;21.77;20.20;;;;;;;15.42;98.15;100400.34;5454139;26;20229;-76
2024/05/07 07:08:21;;;;;;;22.33;20.63;;;;;;;15.07;99.67;100389.94;5454251;26;20234;-77
2024/05/07 07:10:50;;;;;;;21.43;19.87;;;;;;;15.53;98.95;100416.22;5454166;26;20233;-76
2024/05/07 07:13:15;;;;;;;21.13;19.47;;;;;;;15.61;98.21;100406.69;5422416;26;20234;-76
2024/05/07 07:15:41;;;;;;;20.77;19.27;;;;;;;15.67;98.52;100412.16;5451789;26;21050;-76
2024/05/07 07:18:08;;;;;;;22.27;20.57;;;;;;;16.03;97.52;100416.69;5422170;26;20791;-76
2024/05/07 07:20:34;;;;;;;20.53;19.03;;;;;;;15.91;97.63;100407.47;5453988;26;20459;-76
2024/05/07 07:22:59;;;;;;;20.77;19.10;;;;;;;15.59;99.63;100432.00;5422302;26;20845;-77
2024/05/07 07:25:24;;;;;;;21.60;19.90;;;;;;;15.88;98.59;100434.97;5435893;26;20234;-77
2024/05/07 07:27:52;;;;;;;21.70;20.23;;;;;;;15.75;99.72;100430.44;5422048;26;21295;-76
2024/05/07 07:30:17;;;;;;;21.90;20.10;;;;;;;16.03;97.91;100438.16;5453936;26;20242;-76
2024/05/07 07:32:43;;;;;;;20.07;18.57;;;;;;;16.30;96.80;100439.34;5449610;26;20570;-76
2024/05/07 07:35:08;;;;;;;21.37;19.57;;;;;;;16.11;97.13;100441.41;5453821;26;20226;-76
2024/05/07 07:37:33;;;;;;;20.50;19.03;;;;;;;16.07;96.39;100439.34;5421751;26;20593;-74
2024/05/07 07:39:58;;;;;;;20.60;19.10;;;;;;;16.06;95.53;100438.50;5453906;26;20566;-76
2024/05/07 07:42:24;;;;;;;21.57;19.97;;;;;;;15.93;96.14;100451.81;5453657;26;20230;-76
2024/05/07 07:44:49;;;;;;;22.97;21.07;;;;;;;15.76;96.61;100452.50;5453561;26;20571;-76
2024/05/07 07:47:18;;;;;;;22.33;20.63;;;;;;;16.06;96.59;100459.94;5453602;26;20230;-76
2024/05/07 07:49:44;;;;;;;22.33;20.50;;;;;;;16.06;96.41;100468.28;5446675;26;20265;-76
2024/05/07 07:52:10;;;;;;;21.00;19.50;;;;;;;15.88;96.41;100466.47;5453809;26;20463;-76
2024/05/07 07:54:35;;;;;;;24.17;22.10;;;;;;;15.94;97.07;100465.50;5453455;26;20455;-76
2024/05/07 07:57:01;;;;;;;20.93;19.43;;;;;;;16.35;95.04;100475.69;5453571;26;20230;-76
2024/05/07 07:59:26;;;;;;;20.93;19.17;;;;;;;16.28;94.94;100468.56;5439606;26;20761;-76
2024/05/07 08:01:52;;;;;;;19.83;18.40;;;;;;;16.38;95.12;100466.00;5453379;26;20456;-75
2024/05/07 08:04:17;;;;;;;22.23;20.57;;;;;;;16.70;94.58;100481.31;5453556;26;20573;-75
2024/05/07 08:06:42;;;;;;;22.67;20.97;;;;;;;17.00;94.13;100492.28;5445178;26;20231;-76
2024/05/07 08:09:08;;;;;;;23.40;21.70;;;;;;;17.05;93.52;100488.78;5421565;26;20635;-75
2024/05/07 08:11:33;;;;;;;25.37;23.47;;;;;;;16.97;93.75;100491.94;5453296;26;20253;-76
2024/05/07 08:13:59;;;;;;;22.70;21.00;;;;;;;16.88;93.74;100492.31;5453543;26;20451;-76
2024/05/07 08:16:24;;;;;;;22.50;20.70;;;;;;;16.50;95.67;100483.56;5453186;26;20234;-76
2024/05/07 08:18:49;;;;;;;21.70;20.13;;;;;;;16.79;94.53;100493.81;5421234;26;20234;-76
2024/05/07 08:21:14;;;;;;;21.13;19.53;;;;;;;16.08;95.45;100492.06;5433160;26;20260;-76
2024/05/07 08:23:40;;;;;;;20.97;19.37;;;;;;;16.63;95.25;100510.44;5444060;26;20712;-75
2024/05/07 08:26:06;;;;;;;20.47;18.87;;;;;;;16.69;94.12;100492.69;5452905;26;20234;-75
2024/05/07 08:28:31;;;;;;;20.13;18.40;;;;;;;16.89;93.63;100495.97;5452439;26;20334;-76
2024/05/07 08:30:57;;;;;;;20.73;19.20;;;;;;;16.85;93.03;100503.97;5453001;26;20459;-76
2024/05/07 08:33:22;;;;;;;20.73;19.13;;;;;;;16.78;94.61;100497.69;5452842;26;20230;-76
2024/05/07 08:35:48;;;;;;;21.53;20.00;;;;;;;16.84;95.55;100513.44;5421344;26;20234;-76
2024/05/07 08:38:13;;;;;;;20.43;18.93;;;;;;;16.78;93.47;100520.00;5453137;26;20233;-76
2024/05/07 08:40:39;;;;;;;20.70;19.20;;;;;;;16.61;96.23;100523.75;5443597;26;20227;-75
2024/05/07 08:43:04;;;;;;;20.97;19.50;;;;;;;17.14;92.83;100531.94;5452809;26;20234;-76
2024/05/07 08:45:34;;;;;;;19.70;18.30;;;;;;;17.37;92.33;100531.03;5452684;26;20268;-75
2024/05/07 08:48:03;;;;;;;20.60;19.00;;;;;;;17.38;92.03;100541.97;5420967;26;20241;-76
2024/05/07 08:50:29;;;;;;;21.27;19.67;;;;;;;17.19;91.54;100530.13;5420959;26;20471;-76
2024/05/07 08:52:57;;;;;;;19.30;18.00;;;;;;;17.22;92.79;100551.13;5420897;26;20499;-76
2024/05/07 08:55:26;;;;;;;19.47;18.10;;;;;;;17.02;92.89;100537.56;5452554;26;20447;-75
2024/05/07 08:57:51;;;;;;;20.30;18.87;;;;;;;17.04;93.50;100559.66;5439801;26;20820;-75
2024/05/07 09:00:17;;;;;;;19.43;18.00;;;;;;;17.13;92.29;100564.59;5452780;26;20455;-76
2024/05/07 09:02:43;;;;;;;21.53;19.87;;;;;;;17.32;90.95;100558.84;5452298;26;20294;-75
2024/05/07 09:05:08;;;;;;;19.90;18.40;;;;;;;17.29;91.75;100560.19;5452507;26;20455;-75
2024/05/07 09:07:34;;;;;;;19.40;17.67;;;;;;;17.58;91.17;100563.88;5452448;26;20250;-74
2024/05/07 09:10:04;;;;;;;20.27;18.67;;;;;;;17.36;92.30;100560.06;5452413;26;20586;-73
2024/05/07 09:12:33;;;;;;;19.00;17.70;;;;;;;17.61;90.39;100573.69;5452342;26;20236;-76
2024/05/07 09:14:59;;;;;;;18.20;16.90;;;;;;;17.64;90.41;100565.72;5438341;26;21035;-75
2024/05/07 09:17:25;;;;;;;19.50;17.90;;;;;;;17.79;89.16;100576.34;5420624;26;20470;-76
2024/05/07 09:19:50;;;;;;;18.20;16.90;;;;;;;17.78;88.87;100572.69;5420124;26;20706;-76
2024/05/07 09:22:19;;;;;;;17.30;15.80;;;;;;;17.56;89.29;100564.16;5452101;26;20507;-76
2024/05/07 09:24:55;;;;;;;18.80;17.20;;;;;;;17.57;90.51;100574.19;5420408;26;20261;-75
2024/05/07 09:27:21;;;;;;;18.33;16.97;;;;;;;17.18;92.50;100572.25;5451954;26;20580;-75
2024/05/07 09:29:46;;;;;;;19.20;17.90;;;;;;;17.47;91.63;100584.31;5452092;26;20455;-75
2024/05/07 09:32:12;;;;;;;19.17;17.73;;;;;;;17.46;90.64;100565.84;5404085;26;20235;-75
2024/05/07 09:34:42;;;;;;;20.93;19.23;;;;;;;17.44;90.71;100573.63;5452014;26;20346;-75
2024/05/07 09:37:10;;;;;;;19.50;18.20;;;;;;;17.68;90.43;100585.63;5451832;26;20511;-75
2024/05/07 09:40:05;;;;;;;20.53;19.03;;;;;;;17.47;91.53;100575.94;5453708;26;20447;-75
2024/05/07 09:42:38;;;;;;;18.37;17.00;;;;;;;17.44;90.50;100585.66;5436193;26;20503;-76
2024/05/07 09:45:05;;;;;;;19.37;17.80;;;;;;;17.58;90.37;100592.66;5423543;26;20499;-75
2024/05/07 09:47:33;;;;;;;18.20;16.90;;;;;;;17.73;89.48;100603.34;5455608;26;20572;-76
2024/05/07 09:50:01;;;;;;;19.30;17.80;;;;;;;17.78;89.25;100602.59;5435724;26;20515;-76
2024/05/07 09:52:28;;;;;;;19.20;17.80;;;;;;;18.04;89.36;100598.34;5455197;26;20511;-76
2024/05/07 09:54:53;;;;;;;18.03;16.63;;;;;;;18.14;88.45;100590.16;5423375;26;20463;-75
2024/05/07 09:57:20;;;;;;;18.20;16.90;;;;;;;18.31;85.39;100601.38;5455167;26;20466;-75
2024/05/07 09:59:46;;;;;;;17.37;16.17;;;;;;;18.24;86.56;100601.53;5423844;26;20471;-76
2024/05/07 10:02:13;;;;;;;19.17;17.87;;;;;;;18.22;86.88;100596.19;5455441;26;20503;-75
2024/05/07 10:04:38;;;;;;;17.93;16.43;;;;;;;17.88;88.72;100617.63;5455125;26;20454;-75
2024/05/07 10:07:03;;;;;;;17.17;16.07;;;;;;;18.08;87.45;100614.38;5434095;26;20535;-75
2024/05/07 10:09:38;;;;;;;17.70;16.40;;;;;;;18.01;88.11;100615.66;5454888;26;20237;-74
2024/05/07 10:12:04;;;;;;;16.77;15.57;;;;;;;17.91;87.95;100625.50;5455145;26;20293;-75
2024/05/07 10:14:30;;;;;;;18.57;17.27;;;;;;;17.85;89.09;100623.72;5454724;26;20462;-75
2024/05/07 10:17:00;;;;;;;18.33;16.93;;;;;;;17.65;89.35;100625.25;5423124;26;20799;-76
2024/05/07 10:19:26;;;;;;;17.40;16.20;;;;;;;18.00;88.14;100637.16;5454898;26;20518;-75
2024/05/07 10:21:51;;;;;;;16.67;15.17;;;;;;;17.98;86.55;100621.72;5454524;26;20582;-74
2024/05/07 10:24:18;;;;;;;18.20;16.93;;;;;;;18.04;88.12;100638.34;5434055;26;20759;-75
2024/05/07 10:27:02;;;;;;;16.70;15.50;;;;;;;18.11;87.18;100636.25;5454742;26;20230;-75
2024/05/07 10:29:28;;;;;;;17.27;15.77;;;;;;;18.31;86.51;100634.94;5454840;26;20511;-75
2024/05/07 10:32:00;;;;;;;16.20;14.80;;;;;;;18.41;87.39;100647.16;5454704;26;20535;-75
2024/05/07 10:34:27;;;;;;;17.20;15.90;;;;;;;18.33;86.35;100641.16;5454556;26;20504;-75
2024/05/07 10:37:01;;;;;;;19.50;17.87;;;;;;;18.16;87.89;100632.72;5454696;26;20557;-75
2024/05/07 10:39:40;;;;;;;18.40;17.10;;;;;;;18.32;88.46;100643.09;5453744;26;20503;-75
2024/05/07 10:42:10;;;;;;;19.27;17.77;;;;;;;18.09;85.91;100652.44;5454544;26;20971;-75
2024/05/07 10:44:38;;;;;;;16.23;14.73;;;;;;;18.18;87.67;100638.91;5454637;26;20448;-75
2024/05/07 10:47:04;;;;;;;16.73;15.53;;;;;;;18.35;86.59;100642.56;5422812;26;20463;-75
2024/05/07 10:49:29;;;;;;;18.03;16.80;;;;;;;18.25;85.98;100657.22;5422437;26;20853;-75
2024/05/07 10:52:03;;;;;;;17.80;16.40;;;;;;;18.11;87.58;100663.38;5454244;26;20695;-75
2024/05/07 10:54:28;;;;;;;16.30;15.10;;;;;;;18.69;85.95;100662.22;5422537;26;20726;-75
2024/05/07 10:56:53;;;;;;;16.33;15.20;;;;;;;18.82;84.59;100664.69;5415502;26;20468;-75
2024/05/07 10:59:20;;;;;;;13.83;12.93;;;;;;;18.75;82.38;100664.03;5467511;26;20329;-76
2024/05/07 11:01:46;;;;;;;15.43;14.23;;;;;;;18.33;81.33;100661.56;5454342;26;20234;-75
2024/05/07 11:04:13;;;;;;;13.40;12.40;;;;;;;18.32;83.28;100664.63;5454184;26;20515;-75